Flight Track Log - Related Links

Times and Time Zones

All times are in EST time to prevent confusion due to time zone crossing. See the XOJ552 flight status page for this flight to view local times or setup timezone preferences in your user account.

Time Position Orientation Groundspeed Altitude Reporting Facility
EST Latitude Longitude Course Direction KTS MPH feet Rate Location/Type
Sat 09:29:32 AM 27.3833 -82.5500 138° Southeast 173 199 900  Level Tampa TRACON
Sat 09:30:20 AM 27.3500 -82.5167 138° Southeast 203 234 3,400 3,579 Climbing Tampa TRACON
Sat 09:31:26 AM 27.3000 -82.5167 180° South 241 277 7,700 3,810 Climbing Tampa TRACON
Sat 09:32:26 AM 27.3333 -82.5833 299° West 264 304 11,400 2,436 Climbing Tampa TRACON
Sat 09:34:48 AM 27.4592 -82.7747 307° West 310 357 15,900 2,465 Climbing Miami Center
Sat 09:35:48 AM 27.5525 -82.7867 354° North 317 365 19,700 2,050 Climbing Miami Center
Sat 09:36:48 AM 27.6586 -82.7897 359° North 342 394 20,000 185 Climbing Miami Center
Sat 09:38:30 AM 27.8369 -82.7917 359° North 389 448 20,200 963 Climbing Jacksonville Center
Sat 09:39:30 AM 27.9453 -82.7892 North 389 448 22,600 2,350 Climbing Jacksonville Center
Sat 09:40:30 AM 28.0581 -82.7892 360° North 389 448 24,900 1,200 Climbing Jacksonville Center
Sat 09:41:30 AM 28.1686 -82.7867 North 394 453 25,000 550 Climbing Jacksonville Center
Sat 09:42:30 AM 28.2856 -82.7864 360° North 404 465 26,000 500 Climbing Jacksonville Center
Sat 09:43:30 AM 28.4003 -82.7864 360° North 404 465 26,000 400 Level Jacksonville Center
Sat 09:44:30 AM 28.5089 -82.8194 345° North 404 465 26,800 1,650 Climbing Jacksonville Center
Sat 09:45:30 AM 28.6153 -82.8569 343° North 398 458 29,300 2,100 Climbing Jacksonville Center
Sat 09:46:30 AM 28.7281 -82.8617 358° North 398 458 31,000 1,450 Climbing Jacksonville Center
Sat 09:47:30 AM 28.8511 -82.8569 North 410 472 32,200 1,200 Climbing Jacksonville Center
Sat 09:48:30 AM 28.9764 -82.8500 North 434 499 33,400 1,300 Climbing Jacksonville Center
Sat 09:49:30 AM 29.1058 -82.8428 North 450 518 34,800 1,650 Climbing Jacksonville Center
Sat 09:50:30 AM 29.2311 -82.8356 North 456 525 36,700 1,750 Climbing Jacksonville Center
Sat 09:51:30 AM 29.3519 -82.8283 North 451 519 38,300 1,300 Climbing Jacksonville Center
Sat 09:52:30 AM 29.4731 -82.8211 North 440 506 39,300 850 Climbing Jacksonville Center
Sat 09:53:30 AM 29.5964 -82.8208 360° North 440 506 40,000 600 Climbing Jacksonville Center
Sat 09:54:30 AM 29.7175 -82.8136 North 440 506 40,500 504 Climbing Jacksonville Center
Sat 09:55:29 AM 29.8447 -82.8064 North 440 506 41,000 400 Climbing Jacksonville Center
Sat 09:56:30 AM 29.9681 -82.7967 North 440 506 41,300 397 Climbing Jacksonville Center
Sat 09:57:30 AM 30.1100 -82.7869 North 446 513 41,800 400 Climbing Jacksonville Center
Sat 09:58:30 AM 30.2394 -82.7794 North 453 521 42,100 450 Climbing Jacksonville Center
Sat 09:59:30 AM 30.3689 -82.7722 North 458 527 42,700 450 Climbing Jacksonville Center
Sat 10:00:30 AM 30.4961 -82.7647 North 458 527 43,000 150 Climbing Jacksonville Center
Sat 10:01:30 AM 30.6089 -82.7622 North 458 527 43,000  Level Jacksonville Center
Sat 10:02:30 AM 30.7342 -82.7525 North 453 521 43,000  Level Jacksonville Center
Sat 10:03:30 AM 30.8572 -82.7450 North 453 521 43,000  Level Jacksonville Center
Sat 10:04:30 AM 30.9825 -82.7400 North 453 521 43,000  Level Jacksonville Center
Sat 10:05:30 AM 31.1078 -82.7325 North 448 516 43,000  Level Jacksonville Center
Sat 10:06:30 AM 31.2311 -82.7225 North 448 516 43,000  Level Jacksonville Center
Sat 10:08:18 AM 31.4556 -82.7122 North 458 527 43,000  Level Atlanta Center
Sat 10:09:18 AM 31.5828 -82.7053 North 458 527 43,000  Level Atlanta Center
Sat 10:10:18 AM 31.7081 -82.6986 North 458 527 43,000  Level Atlanta Center
Sat 10:11:18 AM 31.8372 -82.6894 North 465 535 43,000  Level Atlanta Center
Sat 10:12:18 AM 31.9625 -82.6828 North 465 535 43,000  Level Atlanta Center
Sat 10:13:18 AM 32.0897 -82.6758 North 459 528 43,000  Level Atlanta Center
Sat 10:14:18 AM 32.2147 -82.6667 North 459 528 43,000  Level Atlanta Center
Sat 10:15:18 AM 32.3419 -82.6597 North 459 528 43,000  Level Atlanta Center
Sat 10:16:18 AM 32.4653 -82.6528 North 454 522 43,000  Level Atlanta Center
Sat 10:17:18 AM 32.5883 -82.6458 North 447 514 43,000  Level Atlanta Center
Sat 10:18:18 AM 32.7133 -82.6342 North 441 507 43,000  Level Atlanta Center
Sat 10:19:18 AM 32.8386 -82.6272 North 441 507 43,000  Level Atlanta Center
Sat 10:20:18 AM 32.9658 -82.6203 North 441 507 43,000  Level Atlanta Center
Sat 10:21:18 AM 33.0908 -82.6131 North 446 513 43,000  Level Atlanta Center
Sat 10:22:18 AM 33.2203 -82.6061 North 451 519 43,000  Level Atlanta Center
Sat 10:23:18 AM 33.3600 -82.5964 North 457 526 43,000  Level Atlanta Center
Sat 10:24:18 AM 33.4892 -82.5892 North 457 526 43,000  Level Atlanta Center
Sat 10:25:18 AM 33.6186 -82.5844 North 466 536 43,000  Level Atlanta Center
Sat 10:26:18 AM 33.7481 -82.5747 North 461 531 43,000  Level Atlanta Center
Sat 10:27:18 AM 33.8669 -82.5678 North 461 531 43,000  Level Atlanta Center
Sat 10:28:18 AM 33.9961 -82.5581 North 461 531 43,000  Level Atlanta Center
Sat 10:29:18 AM 34.1400 -82.5506 North 468 539 43,000  Level Atlanta Center
Sat 10:30:18 AM 34.2714 -82.5456 North 468 539 43,000  Level Atlanta Center
Sat 10:31:18 AM 34.4028 -82.5358 North 468 539 43,000  Level Atlanta Center
Sat 10:32:18 AM 34.5364 -82.5258 North 474 545 43,000  Level Atlanta Center
Sat 10:33:18 AM 34.6656 -82.5211 North 474 545 43,000  Level Atlanta Center
Sat 10:34:18 AM 34.7989 -82.5083 North 474 545 43,000  Level Atlanta Center
Sat 10:35:18 AM 34.9325 -82.4983 North 474 545 43,000  Level Atlanta Center
Sat 10:36:18 AM 35.0639 -82.4933 North 474 545 43,000  Level Atlanta Center
Sat 10:37:18 AM 35.1931 -82.4858 North 474 545 43,000  Level Atlanta Center
Sat 10:38:18 AM 35.3244 -82.4808 North 474 545 43,000  Level Atlanta Center
Sat 10:39:18 AM 35.4558 -82.4683 North 474 545 43,000  Level Atlanta Center
Sat 10:40:18 AM 35.5892 -82.4606 North 474 545 43,000  Level Atlanta Center
Sat 10:41:18 AM 35.7225 -82.4528 North 474 545 43,000  Level Atlanta Center
Sat 10:42:18 AM 35.8350 -82.4431 North 468 539 43,000  Level Atlanta Center
Sat 10:43:18 AM 35.9644 -82.4328 North 463 533 43,000  Level Atlanta Center
Sat 10:44:18 AM 36.0956 -82.4250 North 463 533 43,000  Level Atlanta Center
Sat 10:45:18 AM 36.2269 -82.4172 North 463 533 43,000  Level Atlanta Center
Sat 10:46:18 AM 36.3583 -82.4094 North 463 533 43,000  Level Atlanta Center
Sat 10:48:36 AM 36.6633 -82.3897 North 468 539 43,000  Level Indianapolis Center
Sat 10:49:37 AM 36.7925 -82.3806 North 467 537 43,000  Level Indianapolis Center
Sat 10:50:38 AM 36.9203 -82.3731 North 464 534 43,000  Level Indianapolis Center
Sat 10:51:39 AM 37.0469 -82.3636 North 459 528 43,000  Level Indianapolis Center
Sat 10:52:40 AM 37.1950 -82.3544 North 458 527 43,000  Level Indianapolis Center
Sat 10:53:41 AM 37.3211 -82.3469 North 454 522 43,000  Level Indianapolis Center
Sat 10:54:42 AM 37.4486 -82.3383 North 457 526 43,000  Level Indianapolis Center
Sat 10:55:43 AM 37.5758 -82.3289 North 457 526 43,000  Level Indianapolis Center
Sat 10:56:45 AM 37.7031 -82.3214 North 455 524 43,000  Level Indianapolis Center
Sat 10:57:46 AM 37.8317 -82.3111 North 461 531 43,000  Level Indianapolis Center
Sat 10:58:47 AM 37.9592 -82.3019 North 459 528 43,000 -541 Level Indianapolis Center
Sat 10:59:48 AM 38.0861 -82.2933 North 456 525 41,900 -1,279 Descending Indianapolis Center
Sat 11:00:49 AM 38.2242 -82.2842 North 457 526 40,400 -1,512 Descending Indianapolis Center
Sat 11:01:51 AM 38.3533 -82.2758 North 460 529 38,800 -1,463 Descending Indianapolis Center
Sat 11:02:52 AM 38.4786 -82.2667 North 449 517 37,400 -1,426 Descending Indianapolis Center
Sat 11:03:53 AM 38.6044 -82.2583 North 448 516 35,900 -1,426 Descending Indianapolis Center
Sat 11:04:54 AM 38.7306 -82.2497 North 449 517 34,500 -934 Descending Indianapolis Center
Sat 11:05:55 AM 38.8578 -82.2406 North 453 521 34,000 -244 Descending Indianapolis Center
Sat 11:06:57 AM 38.9861 -82.2319 North 456 525 34,000  Level Indianapolis Center
Sat 11:07:58 AM 39.1142 -82.2239 North 456 525 34,000  Level Indianapolis Center
Sat 11:08:59 AM 39.2425 -82.2144 North 459 528 34,000 -934 Level Indianapolis Center
Sat 11:10:00 AM 39.3694 -82.2058 North 454 522 32,100 -2,213 Descending Indianapolis Center
Sat 11:11:01 AM 39.5053 -82.1969 North 454 522 29,500 -2,439 Descending Indianapolis Center
Sat 11:12:03 AM 39.6314 -82.1872 North 454 522 27,100 -2,293 Descending Indianapolis Center
Sat 11:13:04 AM 39.7492 -82.1786 North 431 496 24,800 -1,967 Descending Indianapolis Center
Sat 11:14:05 AM 39.8697 -82.1697 North 435 501 23,100 -1,426 Descending Indianapolis Center
Sat 11:15:06 AM 39.9839 -82.1614 North 418 481 21,900 -1,230 Descending Indianapolis Center
Sat 11:16:07 AM 40.0978 -82.1533 North 413 475 20,600 -1,377 Descending Indianapolis Center
Sat 11:17:08 AM 40.2317 -82.1428 North 404 465 19,100 -1,426 Descending Indianapolis Center
Sat 11:18:09 AM 40.3281 -82.1367 North 396 456 17,700 -1,268 Descending Indianapolis Center
Sat 11:19:11 AM 40.4389 -82.1306 North 394 453 16,500 -1,268 Descending Indianapolis Center
Sat 11:20:12 AM 40.5556 -82.0311 33° Northeast 423 487 15,100 -689 Descending Indianapolis Center
Sat 11:21:13 AM 40.6447 -81.9425 37° Northeast 406 467 15,100 -457 Level Indianapolis Center
Sat 11:21:44 AM 40.6900 -81.8972 37° Northeast 398 458 14,400 -1,500 Descending Cleveland Center
Sat 11:22:17 AM 40.7403 -81.8472 37° Northeast 404 465 13,500 -1,672 Descending Cleveland Center
Sat 11:22:45 AM 40.7803 -81.8086 36° Northeast 401 461 12,700 -1,574 Descending Cleveland Center
Sat 11:23:18 AM 40.8283 -81.7592 38° Northeast 396 456 11,900 -1,574 Descending Cleveland Center
Sat 11:23:46 AM 40.8689 -81.7203 36° Northeast 400 460 11,100 -1,500 Descending Cleveland Center
Sat 11:24:18 AM 40.9117 -81.6758 38° Northeast 376 433 10,400 -984 Descending Cleveland Center
Sat 11:24:47 AM 40.9503 -81.6389 36° Northeast 368 423 10,100 -393 Descending Cleveland Center
Sat 11:25:19 AM 41.0017 -81.6319 North 337 388 10,000 -97 Descending Cleveland Center
Sat 11:25:49 AM 41.0422 -81.6461 345° North 335 386 10,000 -197 Level Cleveland Center
Sat 11:26:20 AM 41.0850 -81.6644 342° North 301 346 9,800 -984 Descending Cleveland Center
Sat 11:26:50 AM 41.1219 -81.6764 346° North 293 337 9,000 -1,700 Descending Cleveland Center
Sat 11:27:20 AM 41.1600 -81.6931 342° North 268 308 8,100 -1,770 Descending Cleveland Center
Sat 11:27:51 AM 41.1956 -81.6997 352° North 275 316 7,200 -1,082 Descending Cleveland Center
Sat 11:28:21 AM 41.2325 -81.7047 354° North 263 303 7,000 -197 Descending Cleveland Center
Sat 11:28:52 AM 41.2706 -81.7058 359° North 265 305 7,000 -700 Level Cleveland Center
Sat 11:29:21 AM 41.3094 -81.7117 354° North 257 296 6,300 -1,574 Descending Cleveland Center
Sat 11:29:53 AM 41.3433 -81.7125 359° North 252 290 5,400 -1,279 Descending Cleveland Center
Sat 11:30:22 AM 41.3814 -81.7064 North 253 291 5,000 -393 Descending Cleveland Center
Sat 11:30:54 AM 41.4056 -81.6706 48° Northeast 260 299 5,000 -295 Level Cleveland Center
Sat 11:31:23 AM 41.4253 -81.6381 51° Northeast 245 282 4,700 -885 Descending Cleveland Center
Sat 11:31:55 AM 41.4489 -81.6033 48° Northeast 246 283 4,100 -700 Descending Cleveland Center
Sat 11:32:23 AM 41.4714 -81.5925 20° North 201 231 4,000 -393 Descending Cleveland Center
Sat 11:32:56 AM 41.4956 -81.6061 337° Northwest 197 227 3,700 -787 Descending Cleveland Center
Sat 11:33:24 AM 41.5172 -81.6194 335° Northwest 165 190 3,200 -689 Descending Cleveland Center
Sat 11:33:57 AM 41.5339 -81.6400 317° Northwest 187 215 3,000 -200 Descending Cleveland Center
Sat 11:34:24 AM 41.5300 -81.6633 257° West 137 158 3,000  Level Cleveland Center
Sat 11:34:58 AM 41.5192 -81.6869 239° Southwest 154 177 3,000  Level Cleveland Center
Sat 11:35:25 AM 41.5075 -81.7044 228° Southwest 133 153 3,000  Level Cleveland Center
Sat 11:35:59 AM 41.4931 -81.7250 227° Southwest 142 163 3,000  Level Cleveland Center
Sat 11:36:26 AM 41.4831 -81.7422 232° Southwest 136 157 3,000 -295 Level Cleveland Center
Sat 11:37:00 AM 41.4714 -81.7597 228° Southwest 131 151 2,700 -500 Descending Cleveland Center
Sat 11:37:26 AM 41.4633 -81.7728 231° Southwest 96 110 2,500 -590 Descending Cleveland Center
Sat 11:38:01 AM 41.4536 -81.7872 228° Southwest 109 125 2,100 -689 Descending Cleveland Center
Sat 11:38:27 AM 41.4439 -81.8031 231° Southwest 108 124 1,800 -581 Descending Cleveland Center
Sat 11:39:03 AM 41.4350 -81.8172 230° Southwest 107 123 1,500 -600 Descending Cleveland Center
Sat 11:39:27 AM 41.4239 -81.8361 232° Southwest 113 130 1,200 -590 Descending Cleveland Center
Sat 11:40:04 AM 41.4147 -81.8494 227° Southwest 108 124 900 -486 Descending Cleveland Center

Login

Don't have an account? Register now (free) for customized features, flight alerts, and more!